Bookmark and Share
Track history (hours):
 

Pride Of York

Operator: P&O Ferries

Last reported at 2011-Nov-29 10:59 UTC. Time now 2014-Apr-19 09:33 UTC.
Position N 53°45' W 000°16'.
Warning: this ship's position is years out of date!

Length 179.2 m; beam 25.1 m; draft 6.4 m.

Type: Ship (hazmat cat A). MMSI: 235001426.

NotesDate/timePositionNaut miles runAvg speedWind from/ knotsBaromVisibWave heightAir tempDewpointWater temp
2011-Nov-29 10:59N 53°45' W 000°16'0 0.0
2011-Nov-29 10:29N 53°45' W 000°16'0 0.0
2011-Nov-29 09:59N 53°45' W 000°16'0 0.0
2011-Nov-29 09:32N 53°45' W 000°16'0 0.0
2011-Nov-29 08:59N 53°45' W 000°16'0 0.0
2011-Nov-29 08:29N 53°45' W 000°16'0 0.3
2011-Nov-29 08:04N 53°45' W 000°16'0 0.3
2011-Nov-29 07:33N 53°44' W 000°16'2 4.1
2011-Nov-29 07:04N 53°43' W 000°14'612.8
2011-Nov-29 06:34N 53°38' W 000°08'917.6
2011-Nov-29 06:03N 53°34' E 000°06'817.0
2011-Nov-29 05:37N 53°33' E 000°18'1014.4
2011-Nov-29 04:55N 53°29' E 000°33'616.0
2011-Nov-29 04:33N 53°25' E 000°41'2617.2
2011-Nov-29 03:04N 53°09' E 001°15'918.1
2011-Nov-29 02:33N 53°03' E 001°25'918.2
2011-Nov-29 02:04N 52°56' E 001°36'917.6
2011-Nov-29 01:34N 52°51' E 001°47'816.4
2011-Nov-29 01:04N 52°46' E 001°59'815.5
2011-Nov-29 00:33N 52°40' E 002°05'814.9
2011-Nov-29 00:03N 52°33' E 002°10'714.7
2011-Nov-28 23:33N 52°26' E 002°15'714.7
2011-Nov-28 23:04N 52°20' E 002°21'2514.9
2011-Nov-28 21:24N 51°58' E 002°40'615.6
2011-Nov-28 21:01N 51°53' E 002°45'816.0
2011-Nov-28 20:32N 51°46' E 002°51'815.5
2011-Nov-28 20:03N 51°39' E 002°54'815.4
2011-Nov-28 19:33N 51°31' E 002°53'816.6
2011-Nov-28 19:04N 51°25' E 003°01'713.1
2011-Nov-28 18:33N 51°22' E 003°11'2 3.5
2011-Nov-28 18:01N 51°20' E 003°11'0 0.0
2011-Nov-28 17:31N 51°20' E 003°11'0 0.0
2011-Nov-28 16:58N 51°20' E 003°11'0 0.0
2011-Nov-28 16:31N 51°20' E 003°11'0 0.0
2011-Nov-28 16:01N 51°20' E 003°11'0 0.0
2011-Nov-28 15:31N 51°20' E 003°11'0 0.0
2011-Nov-28 15:01N 51°20' E 003°11'0 0.0
2011-Nov-28 14:31N 51°20' E 003°11'0 0.0
2011-Nov-28 14:01N 51°20' E 003°11'0 0.0
2011-Nov-28 13:31N 51°20' E 003°11'0 0.0
2011-Nov-28 13:01N 51°20' E 003°11'0 0.0
2011-Nov-28 12:31N 51°20' E 003°11'0 0.0
2011-Nov-28 11:58N 51°20' E 003°11'0 0.0
2011-Nov-28 11:34N 51°20' E 003°11'0 0.0
2011-Nov-28 11:01N 51°20' E 003°11'0 0.0
2011-Nov-28 10:31N 51°20' E 003°11'0 0.0
2011-Nov-28 10:01N 51°20' E 003°11'0 0.0
2011-Nov-28 09:31N 51°20' E 003°11'0 0.0
2011-Nov-28 09:01N 51°20' E 003°11'0 0.0
2011-Nov-28 08:31N 51°20' E 003°11'0 0.0
2011-Nov-28 08:01N 51°20' E 003°11'0 0.3
2011-Nov-28 07:34N 51°20' E 003°11'5 9.3
2011-Nov-28 07:04N 51°24' E 003°07'714.3
2011-Nov-28 06:33N 51°28' E 002°57'815.2
2011-Nov-28 06:03N 51°34' E 002°49'715.2
2011-Nov-28 05:37N 51°39' E 002°43'814.6
2011-Nov-28 05:03N 51°47' E 002°42'3015.2
2011-Nov-28 03:04N 52°16' E 002°24'1615.7
2011-Nov-28 02:04N 52°29' E 002°11'815.6
2011-Nov-28 01:34N 52°36' E 002°05'815.3
2011-Nov-28 01:03N 52°42' E 001°58'815.9
2011-Nov-28 00:34N 52°48' E 001°48'816.3
2011-Nov-28 00:04N 52°54' E 001°39'816.4
2011-Nov-27 23:34N 52°60' E 001°30'816.8
2011-Nov-27 23:04N 53°06' E 001°21'816.9
2011-Nov-27 22:33N 53°13' E 001°12'4216.3
2011-Nov-27 20:00N 53°33' E 000°10'817.8
2011-Nov-27 19:34N 53°36' W 000°02'816.5
2011-Nov-27 19:04N 53°40' W 000°13'4 7.5
2011-Nov-27 18:28N 53°44' W 000°16'0 0.3
2011-Nov-27 18:03N 53°45' W 000°16'0 0.0
2011-Nov-27 17:30N 53°45' W 000°16'0 0.0
2011-Nov-27 17:03N 53°45' W 000°16'0 0.0
2011-Nov-27 16:27N 53°45' W 000°16'0 0.0
2011-Nov-27 16:03N 53°45' W 000°16'0 0.0
2011-Nov-27 15:30N 53°45' W 000°16'0 0.0
2011-Nov-27 15:03N 53°45' W 000°16'0 0.0
2011-Nov-27 14:30N 53°45' W 000°16'0 0.0
2011-Nov-27 14:00N 53°45' W 000°16'0 0.0
2011-Nov-27 13:33N 53°45' W 000°16'0 0.0
2011-Nov-27 13:00N 53°45' W 000°16'0 0.0
2011-Nov-27 12:33N 53°45' W 000°16'0 0.0
2011-Nov-27 12:00N 53°45' W 000°16'0 0.0
2011-Nov-27 11:30N 53°45' W 000°16'0 0.0
2011-Nov-27 11:03N 53°45' W 000°16'0 0.0
2011-Nov-27 10:33N 53°45' W 000°16'0 0.0
2011-Nov-27 10:00N 53°45' W 000°16'0 0.1
2011-Nov-27 09:33N 53°45' W 000°16'0 0.2
2011-Nov-27 09:03N 53°44' W 000°16'0 0.3
2011-Nov-27 08:33N 53°44' W 000°17'1 2.1
2011-Nov-27 08:03N 53°44' W 000°15'3 6.7
2011-Nov-27 07:38N 53°41' W 000°13'110.1
2011-Nov-27 07:34N 53°40' W 000°13'510.0
2011-Nov-27 07:04N 53°37' W 000°06'713.7
2011-Nov-27 06:34N 53°35' E 000°04'815.2
2011-Nov-27 06:04N 53°33' E 000°17'613.3
2011-Nov-27 05:37N 53°32' E 000°27'3714.1
2011-Nov-27 02:59N 53°09' E 001°16'715.5
2011-Nov-27 02:34N 53°04' E 001°24'816.2
2011-Nov-27 02:04N 52°58' E 001°32'917.6
2011-Nov-27 01:34N 52°52' E 001°43'816.6
2011-Nov-27 01:04N 52°48' E 001°54'815.7
2011-Nov-27 00:34N 52°41' E 002°02'815.2
2011-Nov-27 00:04N 52°35' E 002°08'1513.8
2011-Nov-26 23:00N 52°22' E 002°19'613.5
2011-Nov-26 22:34N 52°16' E 002°24'4113.6
2011-Nov-26 19:33N 51°40' E 002°55'815.5
2011-Nov-26 19:01N 51°32' E 002°51'816.5
2011-Nov-26 18:33N 51°26' E 002°58'816.6
2011-Nov-26 18:04N 51°23' E 003°10'2 4.4
2011-Nov-26 17:32N 51°20' E 003°11'0 0.0
2011-Nov-26 17:02N 51°20' E 003°11'0 0.0
2011-Nov-26 16:32N 51°20' E 003°11'0 0.0
2011-Nov-26 15:59N 51°20' E 003°11'0 0.0
2011-Nov-26 15:32N 51°20' E 003°11'0 0.0
2011-Nov-26 15:02N 51°20' E 003°11'0 0.0
2011-Nov-26 14:32N 51°20' E 003°11'0 0.0
2011-Nov-26 14:02N 51°20' E 003°11'0 0.0
2011-Nov-26 13:32N 51°20' E 003°11'0 0.0
2011-Nov-26 13:02N 51°20' E 003°11'0 0.0
2011-Nov-26 12:32N 51°20' E 003°11'0 0.0
2011-Nov-26 12:02N 51°20' E 003°11'0 0.0
2011-Nov-26 11:38N 51°20' E 003°11'0 0.0
2011-Nov-26 10:59N 51°20' E 003°11'0 0.0
2011-Nov-26 10:32N 51°20' E 003°11'0 0.0
2011-Nov-26 10:02N 51°20' E 003°11'0 0.0
2011-Nov-26 09:32N 51°20' E 003°11'0 0.0
2011-Nov-26 08:59N 51°20' E 003°11'0 0.0
2011-Nov-26 08:32N 51°20' E 003°11'1 1.6
2011-Nov-26 08:04N 51°21' E 003°12'611.4
2011-Nov-26 07:34N 51°24' E 003°05'713.9
2011-Nov-26 07:04N 51°28' E 002°56'714.7
2011-Nov-26 06:33N 51°34' E 002°48'714.1
2011-Nov-26 06:04N 51°40' E 002°43'714.2
2011-Nov-26 05:35N 51°47' E 002°42'2914.1
2011-Nov-26 03:33N 52°13' E 002°23'815.3
2011-Nov-26 03:04N 52°20' E 002°17'815.1
2011-Nov-26 02:32N 52°27' E 002°12'714.9
2011-Nov-26 02:03N 52°33' E 002°07'714.5
2011-Nov-26 01:34N 52°39' E 002°01'714.1
2011-Nov-26 01:04N 52°45' E 001°53'714.6
2011-Nov-26 00:34N 52°50' E 001°45'715.0
2011-Nov-26 00:03N 52°56' E 001°36'815.3
2011-Nov-25 23:34N 53°01' E 001°28'815.5
2011-Nov-25 23:04N 53°08' E 001°21'714.9
2011-Nov-25 22:33N 53°12' E 001°11'2616.0
2011-Nov-25 20:55N 53°28' E 000°35'616.1
2011-Nov-25 20:31N 53°31' E 000°26'816.6
2011-Nov-25 20:03N 53°33' E 000°14'918.7
2011-Nov-25 19:34N 53°35' W 000°01'917.6
2011-Nov-25 19:04N 53°41' W 000°13'4 8.6
2011-Nov-25 18:33N 53°44' W 000°16'0 0.2
2011-Nov-25 18:03N 53°45' W 000°16'0 0.0
2011-Nov-25 17:33N 53°45' W 000°16'0 0.0
2011-Nov-25 16:57N 53°45' W 000°16'0 0.0
2011-Nov-25 16:30N 53°45' W 000°16'0 0.0
2011-Nov-25 15:57N 53°45' W 000°16'0 0.0
2011-Nov-25 15:27N 53°45' W 000°16'0 0.0
2011-Nov-25 15:00N 53°45' W 000°16'0 0.0
2011-Nov-25 14:33N 53°45' W 000°16'0 0.0
2011-Nov-25 14:03N 53°45' W 000°16'0 0.0
2011-Nov-25 13:30N 53°45' W 000°16'0 0.0
2011-Nov-25 12:33N 53°45' W 000°16'0 0.0
2011-Nov-25 12:00N 53°45' W 000°16'0 0.0
2011-Nov-25 11:30N 53°45' W 000°16'0 0.0
2011-Nov-25 11:00N 53°45' W 000°16'0 0.0
2011-Nov-25 10:33N 53°45' W 000°16'0 0.0
2011-Nov-25 09:54N 53°45' W 000°16'0 0.0
2011-Nov-25 09:03N 53°45' W 000°16'0 0.0
2011-Nov-25 08:33N 53°45' W 000°16'0 0.2
2011-Nov-25 07:34N 53°44' W 000°17'3 6.2
2011-Nov-25 07:04N 53°42' W 000°14'714.2
2011-Nov-25 06:34N 53°37' W 000°05'815.2
2011-Nov-25 06:04N 53°34' E 000°07'715.4
2011-Nov-25 05:37N 53°33' E 000°18'1014.0
2011-Nov-25 04:54N 53°29' E 000°33'3012.9
2011-Nov-25 02:32N 53°10' E 001°13'715.4
2011-Nov-25 02:04N 53°04' E 001°21'816.3
2011-Nov-25 01:34N 52°58' E 001°30'817.0
2011-Nov-25 01:03N 52°53' E 001°41'817.0
2011-Nov-25 00:34N 52°49' E 001°53'917.9
2011-Nov-25 00:04N 52°42' E 002°03'918.3
2011-Nov-24 23:33N 52°34' E 002°11'917.5
2011-Nov-24 23:01N 52°25' E 002°17'816.7
2011-Nov-24 22:33N 52°18' E 002°22'4615.3
2011-Nov-24 19:33N 51°36' E 002°52'714.7
2011-Nov-24 19:03N 51°29' E 002°54'815.8
2011-Nov-24 18:34N 51°24' E 003°04'612.1
2011-Nov-24 18:03N 51°21' E 003°12'1 1.1
2011-Nov-24 17:32N 51°20' E 003°11'0 0.0
2011-Nov-24 17:02N 51°20' E 003°11'0 0.0
2011-Nov-24 16:32N 51°20' E 003°11'0 0.0
2011-Nov-24 16:02N 51°20' E 003°11'0 0.0
2011-Nov-24 15:23N 51°20' E 003°11'0 0.0
2011-Nov-24 15:02N 51°20' E 003°11'0 0.0
2011-Nov-24 14:29N 51°20' E 003°11'0 0.0
2011-Nov-24 14:02N 51°20' E 003°11'0 0.0
2011-Nov-24 13:23N 51°20' E 003°11'0 0.0
2011-Nov-24 13:02N 51°20' E 003°11'0 0.0
2011-Nov-24 12:32N 51°20' E 003°11'0 0.0
2011-Nov-24 12:02N 51°20' E 003°11'0 0.0
2011-Nov-24 11:32N 51°20' E 003°11'0 0.0
2011-Nov-24 11:02N 51°20' E 003°11'0 0.0
2011-Nov-24 10:32N 51°20' E 003°11'0 0.0
2011-Nov-24 10:02N 51°20' E 003°11'0 0.0
2011-Nov-24 09:32N 51°20' E 003°11'0 0.0
2011-Nov-24 09:02N 51°20' E 003°11'0 0.0
2011-Nov-24 08:30N 51°20' E 003°11'0 0.0
2011-Nov-24 08:02N 51°20' E 003°11'2 4.8
2011-Nov-24 07:34N 51°23' E 003°10'815.9
2011-Nov-24 07:03N 51°26' E 002°59'816.9
2011-Nov-24 06:33N 51°33' E 002°50'816.9
2011-Nov-24 06:04N 51°39' E 002°43'4316.9
2011-Nov-24 03:32N 52°20' E 002°19'816.1
2011-Nov-24 03:03N 52°26' E 002°13'815.9
2011-Nov-24 02:32N 52°34' E 002°07'815.7
2011-Nov-24 02:04N 52°40' E 002°00'714.9
2011-Nov-24 01:33N 52°45' E 001°52'815.6
2011-Nov-24 01:04N 52°50' E 001°41'714.7
2011-Nov-24 00:34N 52°55' E 001°33'714.7
2011-Nov-24 00:04N 53°01' E 001°25'815.1
2011-Nov-23 23:33N 53°07' E 001°18'815.1
2011-Nov-23 23:03N 53°13' E 001°10'3215.2
2011-Nov-23 20:58N 53°31' E 000°27'615.7
2011-Nov-23 20:33N 53°33' E 000°16'917.5
2011-Nov-23 20:03N 53°35' E 000°02'816.5
2011-Nov-23 19:33N 53°38' W 000°11'713.6
2011-Nov-23 19:03N 53°44' W 000°16'0 0.4
2011-Nov-23 18:27N 53°45' W 000°16'0 0.3
2011-Nov-23 18:00N 53°45' W 000°16'0 0.0
2011-Nov-23 17:27N 53°45' W 000°16'0 0.0
2011-Nov-23 16:57N 53°45' W 000°16'0 0.0
2011-Nov-23 16:27N 53°45' W 000°16'0 0.0
2011-Nov-23 15:54N 53°45' W 000°16'0 0.0
2011-Nov-23 15:30N 53°45' W 000°16'0 0.0
2011-Nov-23 15:02N 53°45' W 000°16'0 0.0
2011-Nov-23 14:02N 53°45' W 000°16'0 0.0
2011-Nov-23 13:32N 53°45' W 000°16'0 0.0
2011-Nov-23 12:59N 53°45' W 000°16'0 0.0
2011-Nov-23 12:32N 53°45' W 000°16'0 0.0
2011-Nov-23 12:02N 53°45' W 000°16'0 0.0
2011-Nov-23 11:31N 53°45' W 000°16'0 0.0
2011-Nov-23 11:01N 53°45' W 000°16'0 0.0
2011-Nov-23 10:31N 53°45' W 000°16'0 0.0
2011-Nov-23 10:01N 53°45' W 000°16'0 0.0
2011-Nov-23 09:31N 53°45' W 000°16'0 0.0
2011-Nov-23 09:01N 53°45' W 000°16'0 0.2
2011-Nov-23 08:34N 53°45' W 000°16'0 0.4
2011-Nov-23 08:03N 53°44' W 000°16'2 3.5
2011-Nov-23 07:33N 53°43' W 000°15'611.2
2011-Nov-23 07:03N 53°38' W 000°10'612.1
2011-Nov-23 06:33N 53°36' W 000°01'612.8
2011-Nov-23 06:03N 53°33' E 000°09'614.2
2011-Nov-23 05:37N 53°33' E 000°20'915.5
2011-Nov-23 05:03N 53°30' E 000°33'815.6
2011-Nov-23 04:34N 53°25' E 000°44'815.0
2011-Nov-23 04:04N 53°22' E 000°55'1414.2
2011-Nov-23 03:03N 53°13' E 001°13'612.8
2011-Nov-23 02:34N 53°08' E 001°20'713.2
2011-Nov-23 02:04N 53°03' E 001°27'713.5
2011-Nov-23 01:34N 52°58' E 001°35'714.7
2011-Nov-23 01:03N 52°52' E 001°42'815.2
2011-Nov-23 00:34N 52°48' E 001°53'816.3
2011-Nov-23 00:04N 52°42' E 002°03'917.8
2011-Nov-22 23:33N 52°35' E 002°10'917.3
2011-Nov-22 23:00N 52°26' E 002°17'817.2
2011-Nov-22 22:34N 52°19' E 002°22'4715.6
2011-Nov-22 19:33N 51°36' E 002°53'714.4
2011-Nov-22 19:03N 51°29' E 002°55'715.1
2011-Nov-22 18:34N 51°24' E 003°04'612.0
2011-Nov-22 18:03N 51°21' E 003°12'0 0.8
2011-Nov-22 17:33N 51°20' E 003°11'0 0.0
2011-Nov-22 17:03N 51°20' E 003°11'0 0.0
2011-Nov-22 16:33N 51°20' E 003°11'0 0.0
2011-Nov-22 16:03N 51°20' E 003°11'0 0.0
2011-Nov-22 15:33N 51°20' E 003°11'0 0.0
2011-Nov-22 15:03N 51°20' E 003°11'0 0.0
2011-Nov-22 14:34N 51°20' E 003°11'0 0.0
2011-Nov-22 14:03N 51°20' E 003°11'0 0.0
2011-Nov-22 13:33N 51°20' E 003°11'0 0.0
2011-Nov-22 13:03N 51°20' E 003°11'0 0.0
2011-Nov-22 12:33N 51°20' E 003°11'0 0.0
2011-Nov-22 12:03N 51°20' E 003°11'0 0.0
2011-Nov-22 11:33N 51°20' E 003°11'0 0.0
2011-Nov-22 11:03N 51°20' E 003°11'0 0.0
2011-Nov-22 10:33N 51°20' E 003°11'0 0.0
2011-Nov-22 10:03N 51°20' E 003°11'0 0.0
2011-Nov-22 09:33N 51°20' E 003°11'0 0.0
2011-Nov-22 09:03N 51°20' E 003°11'0 0.0
2011-Nov-22 08:33N 51°20' E 003°11'0 0.0
2011-Nov-22 08:03N 51°20' E 003°11'2 4.2
2011-Nov-22 07:33N 51°22' E 003°11'816.7
2011-Nov-22 07:04N 51°26' E 002°59'917.0
2011-Nov-22 06:33N 51°33' E 002°50'917.1
2011-Nov-22 06:03N 51°40' E 002°43'3517.3
2011-Nov-22 04:03N 52°11' E 002°20'917.9
2011-Nov-22 03:33N 52°20' E 002°16'917.8
2011-Nov-22 03:04N 52°29' E 002°12'917.6
2011-Nov-22 02:33N 52°36' E 002°04'917.5
2011-Nov-22 02:03N 52°43' E 001°56'816.7
2011-Nov-22 01:34N 52°49' E 001°46'816.8
2011-Nov-22 01:04N 52°54' E 001°35'816.5
2011-Nov-22 00:34N 53°01' E 001°27'816.2
2011-Nov-22 00:04N 53°07' E 001°18'816.1
2011-Nov-21 23:33N 53°13' E 001°09'816.0
2011-Nov-21 23:02N 53°19' E 001°00'815.6
2011-Nov-21 22:32N 53°23' E 000°49'1616.1
2011-Nov-21 21:33N 53°31' E 000°26'815.3
2011-Nov-21 21:03N 53°33' E 000°13'815.2
2011-Nov-21 20:33N 53°35' E 000°02'714.6
2011-Nov-21 20:04N 53°38' W 000°10'612.5
2011-Nov-21 19:33N 53°43' W 000°15'1 2.5
2011-Nov-21 19:03N 53°44' W 000°16'0 0.2
2011-Nov-21 18:32N 53°45' W 000°16'0 0.0
2011-Nov-21 18:02N 53°45' W 000°16'0 0.0
2011-Nov-21 17:32N 53°45' W 000°16'0 0.0
2011-Nov-21 16:29N 53°45' W 000°16'0 0.0
2011-Nov-21 16:02N 53°45' W 000°16'0 0.0
2011-Nov-21 15:29N 53°45' W 000°16'0 0.0
2011-Nov-21 14:32N 53°45' W 000°16'0 0.0
2011-Nov-21 14:02N 53°45' W 000°16'0 0.0
2011-Nov-21 13:29N 53°45' W 000°16'0 0.0
2011-Nov-21 12:26N 53°45' W 000°16'0 0.0
2011-Nov-21 11:53N 53°45' W 000°16'0 0.0
2011-Nov-21 11:32N 53°45' W 000°16'0 0.0
2011-Nov-21 11:02N 53°45' W 000°16'0 0.0
2011-Nov-21 10:03N 53°45' W 000°16'0 0.1
2011-Nov-21 09:34N 53°44' W 000°16'0 0.6
2011-Nov-21 09:03N 53°44' W 000°16'510.9
2011-Nov-21 08:34N 53°39' W 000°12'611.5
2011-Nov-21 08:03N 53°36' W 000°04'713.5
2011-Nov-21 07:34N 53°34' E 000°07'713.7
2011-Nov-21 07:04N 53°33' E 000°18'714.1
2011-Nov-21 06:34N 53°31' E 000°29'815.4
2011-Nov-21 06:03N 53°26' E 000°40'715.0
2011-Nov-21 05:37N 53°23' E 000°50'814.5
2011-Nov-21 05:04N 53°19' E 001°01'814.4
2011-Nov-21 04:31N 53°13' E 001°10'614.1
2011-Nov-21 04:04N 53°08' E 001°17'713.9
2011-Nov-21 03:33N 53°03' E 001°25'612.3
2011-Nov-21 03:04N 52°59' E 001°32'510.9
2011-Nov-21 02:34N 52°55' E 001°38'611.2
2011-Nov-21 02:04N 52°51' E 001°45'611.9
2011-Nov-21 01:34N 52°48' E 001°54'611.9
2011-Nov-21 01:04N 52°44' E 002°01'612.7
2011-Nov-21 00:34N 52°39' E 002°06'713.3
2011-Nov-21 00:04N 52°33' E 002°11'713.5
2011-Nov-20 23:34N 52°27' E 002°16'713.8
2011-Nov-20 23:04N 52°21' E 002°21'713.6
2011-Nov-20 22:32N 52°14' E 002°27'2315.1
2011-Nov-20 21:00N 51°54' E 002°44'714.9
2011-Nov-20 20:34N 51°48' E 002°49'714.8
2011-Nov-20 20:04N 51°42' E 002°55'714.4
2011-Nov-20 19:34N 51°35' E 002°52'713.7
2011-Nov-20 19:04N 51°28' E 002°56'713.2
2011-Nov-20 18:33N 51°24' E 003°05'611.6
2011-Nov-20 18:04N 51°21' E 003°12'1 1.8
2011-Nov-20 17:31N 51°20' E 003°11'0 0.0
2011-Nov-20 17:01N 51°20' E 003°11'0 0.0
2011-Nov-20 16:31N 51°20' E 003°11'0 0.0
2011-Nov-20 16:01N 51°20' E 003°11'0 0.0
2011-Nov-20 15:31N 51°20' E 003°11'0 0.0
2011-Nov-20 15:01N 51°20' E 003°11'0 0.0
2011-Nov-20 14:01N 51°20' E 003°11'0 0.0
2011-Nov-20 13:31N 51°20' E 003°11'0 0.0
2011-Nov-20 13:01N 51°20' E 003°11'0 0.0
2011-Nov-20 12:31N 51°20' E 003°11'0 0.0
2011-Nov-20 12:02N 51°20' E 003°11'0 0.0
2011-Nov-20 11:32N 51°20' E 003°11'0 0.0
2011-Nov-20 11:02N 51°20' E 003°11'0 0.0
2011-Nov-20 10:29N 51°20' E 003°11'0 0.0
2011-Nov-20 10:02N 51°20' E 003°11'0 0.0
2011-Nov-20 09:32N 51°20' E 003°11'0 0.0
2011-Nov-20 09:02N 51°20' E 003°11'0 0.0
2011-Nov-20 08:33N 51°20' E 003°11'4 7.5
2011-Nov-20 08:04N 51°24' E 003°08'714.7
2011-Nov-20 07:34N 51°27' E 002°58'714.9
2011-Nov-20 07:04N 51°33' E 002°50'714.9
2011-Nov-20 06:34N 51°39' E 002°44'714.8
2011-Nov-20 06:03N 51°46' E 002°42'3115.5
2011-Nov-20 04:03N 52°15' E 002°23'816.4
2011-Nov-20 03:34N 52°22' E 002°17'816.0
2011-Nov-20 03:03N 52°30' E 002°11'816.4
2011-Nov-20 02:34N 52°37' E 002°05'816.4
2011-Nov-20 02:04N 52°43' E 001°56'816.6
2011-Nov-20 01:33N 52°48' E 001°45'816.3
2011-Nov-20 01:04N 52°54' E 001°37'816.4
2011-Nov-20 00:33N 53°01' E 001°29'815.9
2011-Nov-20 00:03N 53°07' E 001°20'815.7
2011-Nov-19 23:33N 53°12' E 001°11'915.5
2011-Nov-19 23:00N 53°19' E 001°01'715.2
2011-Nov-19 22:34N 53°23' E 000°52'816.0
2011-Nov-19 22:03N 53°26' E 000°40'917.3
2011-Nov-19 21:33N 53°31' E 000°28'816.2
2011-Nov-19 21:04N 53°33' E 000°14'714.8
2011-Nov-19 20:34N 53°35' E 000°03'714.8
2011-Nov-19 20:04N 53°38' W 000°09'611.1
2011-Nov-19 19:33N 53°42' W 000°14'2 5.0
2011-Nov-19 19:03N 53°44' W 000°16'0 0.4
2011-Nov-19 18:34N 53°45' W 000°16'0 0.3
2011-Nov-19 18:00N 53°45' W 000°16'0 0.0
2011-Nov-19 17:33N 53°45' W 000°16'0 0.0
2011-Nov-19 17:03N 53°45' W 000°16'0 0.0
2011-Nov-19 16:33N 53°45' W 000°16'0 0.0
2011-Nov-19 16:03N 53°45' W 000°16'0 0.0
2011-Nov-19 15:33N 53°45' W 000°16'0 0.0
2011-Nov-19 15:03N 53°45' W 000°16'0 0.0
2011-Nov-19 14:33N 53°45' W 000°16'0 0.0
2011-Nov-19 13:54N 53°45' W 000°16'0 0.0
2011-Nov-19 13:33N 53°45' W 000°16'0 0.0
2011-Nov-19 13:03N 53°45' W 000°16'0 0.0
2011-Nov-19 12:33N 53°45' W 000°16'0 0.0
2011-Nov-19 12:03N 53°45' W 000°16'0 0.0
2011-Nov-19 11:33N 53°45' W 000°16'0 0.0
2011-Nov-19 11:03N 53°45' W 000°16'  

Dump ship's entire track history

sailing weather and tide predictions

Pride Of York — GIFR — position and weather